createdAt,value
2023-05-11T00:00:13.617Z,95473.00
2023-05-11T00:05:42.555Z,95477.00
2023-05-11T00:11:10.840Z,95467.00
2023-05-11T00:16:38.888Z,95466.00
2023-05-11T00:22:07.746Z,95458.00
2023-05-11T00:27:35.849Z,95463.00
2023-05-11T00:33:04.219Z,95463.00
2023-05-11T00:38:32.448Z,95458.00
2023-05-11T00:44:00.687Z,95447.00
2023-05-11T00:49:31.295Z,95452.00
2023-05-11T00:54:59.520Z,95445.00
2023-05-11T01:00:27.716Z,95445.00
2023-05-11T01:06:11.376Z,95440.00
2023-05-11T01:12:04.016Z,95441.00
2023-05-11T01:18:03.646Z,95436.00
2023-05-11T01:24:26.590Z,95443.00
2023-05-11T01:29:56.008Z,95434.00
2023-05-11T01:35:26.743Z,95430.00
2023-05-11T01:40:56.943Z,95431.00
2023-05-11T01:46:27.595Z,95430.00
2023-05-11T01:51:58.979Z,95429.00
2023-05-11T01:57:28.581Z,95425.00
2023-05-11T02:02:59.714Z,95429.00
2023-05-11T02:08:31.367Z,95426.00
2023-05-11T02:14:00.486Z,95431.00
2023-05-11T02:19:31.838Z,95425.00
2023-05-11T02:25:00.181Z,95429.00
2023-05-11T02:30:33.352Z,95416.00
2023-05-11T02:36:03.826Z,95414.00
2023-05-11T02:41:41.442Z,95418.00
2023-05-11T02:47:13.382Z,95411.00
2023-05-11T02:52:45.572Z,95414.00
2023-05-11T02:58:14.334Z,95409.00
2023-05-11T03:03:46.936Z,95406.00
2023-05-11T03:09:16.069Z,95405.00
2023-05-11T03:14:48.703Z,95404.00
2023-05-11T03:20:19.942Z,95403.00
2023-05-11T03:25:48.333Z,95402.00
2023-05-11T03:31:16.869Z,95392.00
2023-05-11T03:36:51.282Z,95404.00
2023-05-11T03:42:21.253Z,95391.00
2023-05-11T03:47:51.792Z,95394.00
2023-05-11T03:53:21.204Z,95386.00
2023-05-11T03:58:50.250Z,95387.00
2023-05-11T04:04:20.430Z,95387.00
2023-05-11T04:09:48.378Z,95383.00
2023-05-11T04:15:16.759Z,95374.00
2023-05-11T04:20:46.673Z,95378.00
2023-05-11T04:26:17.558Z,95382.00
2023-05-11T04:31:46.474Z,95385.00
2023-05-11T04:37:14.742Z,95389.00
2023-05-11T04:42:43.639Z,95386.00
2023-05-11T04:48:19.563Z,95383.00
2023-05-11T04:53:48.649Z,95393.00
2023-05-11T04:59:16.923Z,95389.00
2023-05-11T05:04:45.626Z,95382.00
2023-05-11T05:10:14.384Z,95385.00
2023-05-11T05:15:43.137Z,95383.00
2023-05-11T05:21:11.291Z,95385.00
2023-05-11T05:26:39.776Z,95394.00
2023-05-11T05:32:08.897Z,95391.00
2023-05-11T05:37:39.893Z,95402.00
2023-05-11T05:43:08.185Z,95411.00
2023-05-11T05:48:36.925Z,95405.00
2023-05-11T05:54:05.137Z,95401.00
2023-05-11T05:59:34.696Z,95399.00
2023-05-11T06:05:03.381Z,95407.00
2023-05-11T06:10:32.907Z,95405.00
2023-05-11T06:16:00.698Z,95419.00
2023-05-11T06:21:33.758Z,95417.00
2023-05-11T06:27:02.946Z,95410.00
2023-05-11T06:32:34.367Z,95412.00
2023-05-11T06:38:04.232Z,95423.00
2023-05-11T06:43:33.724Z,95417.00
2023-05-11T06:49:04.057Z,95415.00
2023-05-11T06:54:31.840Z,95414.00
2023-05-11T07:00:00.828Z,95409.00
2023-05-11T07:05:29.601Z,95420.00
2023-05-11T07:10:57.906Z,95414.00
2023-05-11T07:16:27.289Z,95422.00
2023-05-11T07:21:55.521Z,95414.00
2023-05-11T07:27:23.653Z,95416.00
2023-05-11T07:32:51.840Z,95414.00
2023-05-11T07:38:20.095Z,95422.00
2023-05-11T07:43:48.593Z,95422.00
2023-05-11T07:49:20.842Z,95426.00
2023-05-11T07:54:58.270Z,95421.00
2023-05-11T08:00:30.116Z,95422.00
2023-05-11T08:05:58.568Z,95422.00
2023-05-11T08:11:27.628Z,95416.00
2023-05-11T08:16:55.621Z,95411.00
2023-05-11T08:22:24.073Z,95412.00
2023-05-11T08:27:52.195Z,95410.00
2023-05-11T08:33:36.697Z,95415.00
2023-05-11T08:39:06.698Z,95404.00
2023-05-11T08:44:37.921Z,95403.00
2023-05-11T08:50:06.775Z,95403.00
2023-05-11T08:55:35.251Z,95410.00
2023-05-11T09:01:04.821Z,95421.00
2023-05-11T09:06:33.573Z,95420.00
2023-05-11T09:12:02.202Z,95413.00
2023-05-11T09:17:35.741Z,95419.00
2023-05-11T09:23:04.017Z,95407.00
2023-05-11T09:28:35.893Z,95410.00
2023-05-11T09:34:23.726Z,95408.00
2023-05-11T09:40:24.988Z,95405.00
2023-05-11T09:45:49.992Z,95403.00
2023-05-11T09:51:34.041Z,95406.00
2023-05-11T09:57:04.713Z,95401.00
2023-05-11T10:02:33.766Z,95407.00
2023-05-11T10:08:06.176Z,95407.00
2023-05-11T10:13:35.959Z,95400.00
2023-05-11T10:19:04.478Z,95403.00
2023-05-11T10:24:33.898Z,95400.00
2023-05-11T10:30:03.978Z,95400.00
2023-05-11T10:35:33.049Z,95405.00
2023-05-11T10:41:20.348Z,95406.00
2023-05-11T10:47:15.099Z,95398.00
2023-05-11T10:53:30.168Z,95407.00
2023-05-11T10:59:39.040Z,95397.00
2023-05-11T11:05:10.841Z,95384.00
2023-05-11T11:10:39.807Z,95393.00
2023-05-11T11:16:08.079Z,95396.00
2023-05-11T11:21:43.220Z,95390.00
2023-05-11T11:27:12.385Z,95388.00
2023-05-11T11:32:40.598Z,95387.00
2023-05-11T11:38:11.224Z,95387.00
2023-05-11T11:43:46.242Z,95384.00
2023-05-11T11:49:14.471Z,95384.00
2023-05-11T11:54:44.604Z,95389.00
2023-05-11T12:00:13.275Z,95393.00
2023-05-11T12:05:45.501Z,95393.00
2023-05-11T12:11:17.945Z,95383.00
2023-05-11T12:17:13.678Z,95382.00
2023-05-11T12:22:42.054Z,95376.00
2023-05-11T12:28:12.586Z,95378.00
2023-05-11T12:33:51.462Z,95373.00
2023-05-11T12:39:27.698Z,95374.00
2023-05-11T12:44:56.306Z,95363.00
2023-05-11T12:50:24.477Z,95368.00
2023-05-11T12:55:59.903Z,95368.00
2023-05-11T13:01:29.139Z,95365.00
2023-05-11T13:06:57.167Z,95368.00
2023-05-11T13:12:25.950Z,95362.00
2023-05-11T13:17:59.534Z,95358.00
2023-05-11T13:23:27.855Z,95353.00
2023-05-11T13:29:09.618Z,95350.00
2023-05-11T13:34:38.995Z,95349.00
2023-05-11T13:40:10.783Z,95337.00
2023-05-11T13:45:41.248Z,95342.00
2023-05-11T13:51:09.107Z,95341.00
2023-05-11T13:56:37.304Z,95343.00
2023-05-11T14:02:05.690Z,95347.00
2023-05-11T14:07:45.561Z,95337.00
2023-05-11T14:13:14.967Z,95340.00
2023-05-11T14:18:43.065Z,95345.00
2023-05-11T14:24:12.527Z,95351.00
2023-05-11T14:29:43.963Z,95340.00
2023-05-11T14:35:12.364Z,95332.00
2023-05-11T14:40:40.116Z,95325.00
2023-05-11T14:46:08.627Z,95334.00
2023-05-11T14:51:39.436Z,95332.00
2023-05-11T14:57:07.659Z,95329.00
2023-05-11T15:02:35.985Z,95329.00
2023-05-11T15:08:04.293Z,95330.00
2023-05-11T15:13:32.436Z,95335.00
2023-05-11T15:19:00.756Z,95336.00
2023-05-11T15:24:28.925Z,95340.00
2023-05-11T15:29:56.700Z,95345.00
2023-05-11T15:35:24.953Z,95352.00
2023-05-11T15:40:52.799Z,95345.00
2023-05-11T15:46:21.655Z,95346.00
2023-05-11T15:51:49.936Z,95351.00
2023-05-11T15:57:18.145Z,95357.00
2023-05-11T16:02:48.956Z,95356.00
2023-05-11T16:08:17.552Z,95356.00
2023-05-11T16:13:45.928Z,95356.00
2023-05-11T16:19:14.189Z,95348.00
2023-05-11T16:24:42.397Z,95343.00
2023-05-11T16:30:22.356Z,95346.00
2023-05-11T16:35:52.961Z,95342.00
2023-05-11T16:41:21.290Z,95341.00
2023-05-11T16:46:49.302Z,95344.00
2023-05-11T16:52:17.968Z,95336.00
2023-05-11T16:57:47.066Z,95329.00
2023-05-11T17:03:15.343Z,95326.00
2023-05-11T17:08:45.023Z,95325.00
2023-05-11T17:14:13.201Z,95321.00
2023-05-11T17:19:41.329Z,95331.00
2023-05-11T17:25:09.776Z,95323.00
2023-05-11T17:30:48.148Z,95322.00
2023-05-11T17:36:17.258Z,95329.00
2023-05-11T17:41:45.144Z,95329.00
2023-05-11T17:47:13.689Z,95326.00
2023-05-11T17:52:41.966Z,95328.00
2023-05-11T17:58:10.722Z,95334.00
2023-05-11T18:03:41.917Z,95331.00
2023-05-11T18:09:12.781Z,95332.00
2023-05-11T18:14:42.753Z,95326.00
2023-05-11T18:20:11.555Z,95337.00
2023-05-11T18:25:40.071Z,95336.00
2023-05-11T18:31:08.190Z,95347.00
2023-05-11T18:36:36.224Z,95333.00
2023-05-11T18:42:06.843Z,95340.00
2023-05-11T18:47:35.725Z,95339.00
2023-05-11T18:53:04.620Z,95335.00
2023-05-11T18:58:32.547Z,95341.00
2023-05-11T19:04:01.043Z,95341.00
2023-05-11T19:09:28.954Z,95346.00
2023-05-11T19:15:00.974Z,95362.00
2023-05-11T19:20:31.264Z,95349.00
2023-05-11T19:26:00.588Z,95354.00
2023-05-11T19:31:31.581Z,95356.00
2023-05-11T19:36:59.729Z,95350.00
2023-05-11T19:42:39.459Z,95352.00
2023-05-11T19:48:08.235Z,95363.00
2023-05-11T19:53:36.655Z,95367.00
2023-05-11T19:59:05.339Z,95370.00
2023-05-11T20:04:36.212Z,95361.00
2023-05-11T20:10:09.149Z,95358.00
2023-05-11T20:15:40.844Z,95354.00
2023-05-11T20:21:09.832Z,95360.00
2023-05-11T20:26:37.744Z,95363.00
2023-05-11T20:32:07.712Z,95353.00
2023-05-11T20:37:36.379Z,95353.00
2023-05-11T20:43:06.512Z,95358.00
2023-05-11T20:48:40.468Z,95360.00
2023-05-11T20:54:11.713Z,95348.00
2023-05-11T21:05:13.720Z,95346.00
2023-05-11T21:10:42.414Z,95327.00
2023-05-11T21:16:12.276Z,95333.00
2023-05-11T21:21:41.181Z,95331.00
2023-05-11T21:27:09.449Z,95338.00
2023-05-11T21:32:40.581Z,95331.00
2023-05-11T21:38:14.897Z,95327.00
2023-05-11T21:43:43.160Z,95331.00
2023-05-11T21:49:12.032Z,95334.00
2023-05-11T21:54:40.325Z,95336.00
2023-05-11T22:00:09.855Z,95348.00
2023-05-11T22:05:38.052Z,95345.00
2023-05-11T22:11:09.836Z,95334.00
2023-05-11T22:16:39.011Z,95349.00
2023-05-11T22:22:08.998Z,95349.00
2023-05-11T22:27:37.038Z,95355.00
2023-05-11T22:33:06.949Z,95352.00
2023-05-11T22:38:37.664Z,95360.00
2023-05-11T22:44:08.886Z,95357.00
2023-05-11T22:49:37.057Z,95358.00
2023-05-11T22:55:05.741Z,95357.00
2023-05-11T23:00:36.095Z,95345.00
2023-05-11T23:06:11.615Z,95352.00
2023-05-11T23:11:40.375Z,95353.00
2023-05-11T23:17:08.352Z,95347.00
2023-05-11T23:22:37.239Z,95348.00
2023-05-11T23:28:11.501Z,95348.00
2023-05-11T23:33:39.901Z,95348.00
2023-05-11T23:39:09.716Z,95334.00
2023-05-11T23:44:37.931Z,95335.00
2023-05-11T23:50:07.443Z,95339.00
2023-05-11T23:55:35.791Z,95337.00
